Time;durP1;ratioP1;P1;durP2;ratioP2;P2;SDS_P1;SDS_P2;PMS_P1;PMS_P2;Temp;Humidity;BMP_temperature;BMP_pressure;BME280_temperature;BME280_humidity;BME280_pressure;Samples;Min_cycle;Max_cycle;Signal;HPM_P1;HPM_P2
2021/12/23 00:00:59;;;;;;;40.63;19.63;;;6.90;99.90;;;;;;5050752;28;20208;-57
2021/12/23 00:03:25;;;;;;;39.97;19.20;;;6.90;99.90;;;;;;5051334;28;20193;-57
2021/12/23 00:05:53;;;;;;;45.10;18.77;;;6.90;99.90;;;;;;5051040;28;20654;-57
2021/12/23 00:08:20;;;;;;;43.60;18.77;;;6.90;99.90;;;;;;5050953;28;20625;-57
2021/12/23 00:10:45;;;;;;;40.63;18.53;;;6.90;99.90;;;;;;5050796;28;20181;-57
2021/12/23 00:13:11;;;;;;;39.40;19.13;;;6.90;99.90;;;;;;5050896;28;20187;-58
2021/12/23 00:16:00;;;;;;;40.07;19.33;;;6.90;99.90;;;;;;5051016;28;20603;-57
2021/12/23 00:23:56;;;;;;;38.47;18.70;;;6.90;99.90;;;;;;5051025;28;20653;-57
2021/12/23 00:26:22;;;;;;;33.73;18.20;;;6.90;99.90;;;;;;5050504;28;20237;-57
2021/12/23 00:28:47;;;;;;;35.00;18.10;;;6.90;99.90;;;;;;5050596;28;20252;-57
2021/12/23 00:31:15;;;;;;;37.83;18.87;;;7.00;99.90;;;;;;5050307;28;20188;-57
2021/12/23 00:33:42;;;;;;;42.53;20.23;;;7.00;99.90;;;;;;5050642;28;20212;-57
2021/12/23 00:36:10;;;;;;;44.27;19.33;;;7.00;99.90;;;;;;5050041;28;20196;-57
2021/12/23 00:38:43;;;;;;;36.63;19.70;;;7.00;99.90;;;;;;5050591;28;20182;-57
2021/12/23 00:41:09;;;;;;;39.27;19.80;;;7.00;99.90;;;;;;5050520;28;20211;-57
2021/12/23 00:43:35;;;;;;;37.73;19.83;;;7.10;99.90;;;;;;5050579;28;20538;-57
2021/12/23 00:46:03;;;;;;;40.50;19.93;;;7.10;99.90;;;;;;5050539;28;20189;-57
2021/12/23 00:48:30;;;;;;;38.47;19.53;;;7.10;99.90;;;;;;5050410;28;20233;-58
2021/12/23 00:50:56;;;;;;;40.27;19.50;;;7.10;99.90;;;;;;5050431;28;20173;-57
2021/12/23 00:53:23;;;;;;;41.03;19.70;;;7.10;99.90;;;;;;5050923;28;20173;-57
2021/12/23 00:55:54;;;;;;;39.10;19.60;;;7.10;99.90;;;;;;5049080;28;20173;-58
2021/12/23 00:58:21;;;;;;;42.43;19.83;;;7.10;99.90;;;;;;5049842;28;20707;-57
2021/12/23 01:00:48;;;;;;;38.57;20.33;;;7.20;99.90;;;;;;5050356;28;20173;-57
2021/12/23 01:03:14;;;;;;;36.23;19.83;;;7.20;99.90;;;;;;5050109;28;20177;-58
2021/12/23 01:05:41;;;;;;;43.03;20.70;;;7.20;99.90;;;;;;5050544;28;20525;-58
2021/12/23 01:08:07;;;;;;;40.23;20.50;;;7.20;99.90;;;;;;5050334;28;20227;-57
2021/12/23 01:10:34;;;;;;;43.40;20.10;;;7.20;99.90;;;;;;5049142;28;20181;-57
2021/12/23 01:13:03;;;;;;;47.60;21.63;;;7.30;99.90;;;;;;5050246;28;20639;-58
2021/12/23 01:18:19;;;;;;;37.37;20.07;;;7.20;99.90;;;;;;5050845;28;20177;-57
2021/12/23 01:21:03;;;;;;;42.90;20.97;;;7.20;99.90;;;;;;5050101;28;20181;-57
2021/12/23 01:23:31;;;;;;;42.13;20.87;;;7.20;99.90;;;;;;5050401;28;20189;-57
2021/12/23 01:25:57;;;;;;;43.00;20.93;;;7.20;99.90;;;;;;5049882;28;20217;-57
2021/12/23 01:28:25;;;;;;;46.93;21.63;;;7.20;99.90;;;;;;5050173;28;20309;-57
2021/12/23 01:30:51;;;;;;;49.20;22.97;;;7.30;99.90;;;;;;5035843;28;20173;-57
2021/12/23 01:33:17;;;;;;;47.43;22.77;;;7.30;99.90;;;;;;5050032;28;20711;-57
2021/12/23 01:35:49;;;;;;;49.03;23.43;;;7.30;99.90;;;;;;5050163;28;20178;-57
2021/12/23 01:38:15;;;;;;;53.13;23.23;;;7.30;99.90;;;;;;5049768;28;20646;-58
2021/12/23 01:40:44;;;;;;;58.47;24.27;;;7.30;99.90;;;;;;5049689;28;20513;-58
2021/12/23 01:43:10;;;;;;;48.17;23.20;;;7.30;99.90;;;;;;5050597;28;20180;-57
2021/12/23 01:45:46;;;;;;;54.83;24.60;;;7.30;99.90;;;;;;5050029;28;20173;-57
2021/12/23 01:48:12;;;;;;;54.80;24.80;;;7.40;99.90;;;;;;5051816;28;20204;-57
2021/12/23 01:50:39;;;;;;;56.23;23.47;;;7.40;99.90;;;;;;5053298;28;20219;-57
2021/12/23 01:53:06;;;;;;;45.90;21.50;;;7.40;99.90;;;;;;5053233;28;20209;-57
2021/12/23 01:55:35;;;;;;;42.90;21.37;;;7.40;99.90;;;;;;5053817;28;20185;-57
2021/12/23 01:58:01;;;;;;;37.23;19.83;;;7.30;99.90;;;;;;5052559;28;20173;-57
2021/12/23 02:00:30;;;;;;;40.87;20.53;;;7.20;99.90;;;;;;5053087;28;20662;-57
2021/12/23 02:02:57;;;;;;;45.73;21.93;;;7.20;99.90;;;;;;5052641;28;20245;-57
2021/12/23 02:05:23;;;;;;;44.87;21.43;;;7.10;99.90;;;;;;5053713;28;20169;-57
2021/12/23 02:07:50;;;;;;;50.13;21.37;;;7.10;99.90;;;;;;5053003;28;20217;-57
2021/12/23 02:10:16;;;;;;;47.73;20.83;;;7.10;99.90;;;;;;5053498;28;20173;-57
2021/12/23 02:12:47;;;;;;;46.30;21.80;;;7.10;99.90;;;;;;5053629;28;20177;-56
2021/12/23 02:15:14;;;;;;;42.90;22.90;;;7.10;99.90;;;;;;5052916;28;20268;-57
2021/12/23 02:17:41;;;;;;;45.77;22.27;;;7.10;99.90;;;;;;5053338;28;20181;-57
2021/12/23 02:20:09;;;;;;;50.27;23.13;;;7.10;99.90;;;;;;5053144;28;20652;-57
2021/12/23 02:22:35;;;;;;;63.63;25.77;;;7.10;99.90;;;;;;5051802;28;20202;-57
2021/12/23 02:25:03;;;;;;;50.50;24.83;;;7.20;99.90;;;;;;5053058;28;20173;-57
2021/12/23 02:27:29;;;;;;;56.53;26.27;;;7.20;99.90;;;;;;5039668;28;20231;-56
2021/12/23 02:29:54;;;;;;;51.37;26.13;;;7.40;99.90;;;;;;5052673;28;20651;-56
2021/12/23 02:32:20;;;;;;;57.40;25.13;;;7.30;99.90;;;;;;5052983;28;20636;-56
2021/12/23 02:34:46;;;;;;;59.30;27.07;;;7.40;99.90;;;;;;5052440;28;20199;-56
2021/12/23 02:37:14;;;;;;;55.93;25.33;;;7.40;99.90;;;;;;5053195;28;20172;-56
2021/12/23 02:39:41;;;;;;;52.87;25.53;;;7.40;99.90;;;;;;5052699;28;20177;-56
2021/12/23 02:42:07;;;;;;;59.30;27.33;;;7.40;99.90;;;;;;5053076;28;20268;-56
2021/12/23 02:44:33;;;;;;;62.30;28.90;;;7.40;99.90;;;;;;5052228;28;20212;-55
2021/12/23 02:46:59;;;;;;;68.43;28.73;;;7.50;99.90;;;;;;5052885;28;20223;-56
2021/12/23 02:49:25;;;;;;;70.67;30.93;;;7.60;99.90;;;;;;5052481;28;20201;-56
2021/12/23 02:51:52;;;;;;;74.70;31.90;;;7.70;99.90;;;;;;5052492;28;20173;-57
2021/12/23 02:54:18;;;;;;;72.27;29.87;;;7.80;99.90;;;;;;5051677;28;20248;-56
2021/12/23 02:56:44;;;;;;;76.43;31.13;;;7.90;99.90;;;;;;5052091;28;20189;-56
2021/12/23 02:59:10;;;;;;;68.23;31.23;;;8.10;99.90;;;;;;5051740;28;20668;-57
2021/12/23 03:01:36;;;;;;;79.57;31.47;;;8.10;99.90;;;;;;5051887;28;20226;-56
2021/12/23 03:04:02;;;;;;;72.93;30.83;;;8.00;99.90;;;;;;5051956;28;20181;-59
2021/12/23 03:06:28;;;;;;;70.43;29.53;;;8.00;99.90;;;;;;5052219;28;20239;-56
2021/12/23 03:08:59;;;;;;;61.73;26.93;;;8.00;99.90;;;;;;5052113;28;20710;-56
2021/12/23 03:11:27;;;;;;;60.10;28.00;;;7.90;99.90;;;;;;5051783;28;20203;-56
2021/12/23 03:13:53;;;;;;;64.27;27.60;;;7.80;99.90;;;;;;5051753;28;20185;-56
2021/12/23 03:16:24;;;;;;;62.53;27.67;;;7.80;99.90;;;;;;5051693;28;20252;-56
2021/12/23 03:18:50;;;;;;;65.67;27.90;;;7.80;99.90;;;;;;5052238;28;20176;-56
2021/12/23 03:21:17;;;;;;;59.07;28.67;;;7.70;99.90;;;;;;5051182;28;20536;-56
2021/12/23 03:23:43;;;;;;;71.43;30.10;;;;;;;;;;5051714;28;20306;-56
2021/12/23 03:26:09;;;;;;;70.87;30.37;;;7.80;99.90;;;;;;5051409;28;20213;-56
2021/12/23 03:28:36;;;;;;;70.93;32.00;;;8.10;99.90;;;;;;5051528;28;20219;-55
2021/12/23 03:31:04;;;;;;;73.43;29.93;;;8.20;99.90;;;;;;5051537;28;20173;-56
2021/12/23 03:33:29;;;;;;;69.53;31.07;;;8.00;99.90;;;;;;5051860;28;20196;-55
2021/12/23 03:35:56;;;;;;;74.97;31.50;;;8.00;99.90;;;;;;5051886;28;20671;-55
2021/12/23 03:38:23;;;;;;;68.60;31.17;;;8.10;99.90;;;;;;5051681;28;20169;-55
2021/12/23 03:40:49;;;;;;;71.23;30.73;;;8.30;99.90;;;;;;5051692;28;20223;-56
2021/12/23 03:43:16;;;;;;;64.90;30.40;;;8.30;99.90;;;;;;5051615;28;20264;-56
2021/12/23 03:45:45;;;;;;;72.53;31.50;;;8.30;99.90;;;;;;5050370;28;20259;-55
2021/12/23 03:48:15;;;;;;;70.07;32.07;;;8.30;99.90;;;;;;5051036;28;20205;-56
2021/12/23 03:50:41;;;;;;;74.73;30.97;;;8.40;99.90;;;;;;5051117;28;20247;-56
2021/12/23 03:53:07;;;;;;;67.93;30.10;;;8.50;99.90;;;;;;5051556;28;20207;-56
2021/12/23 03:55:33;;;;;;;76.77;29.30;;;8.60;99.90;;;;;;5051139;28;20695;-58
2021/12/23 03:57:59;;;;;;;81.20;30.00;;;8.70;99.90;;;;;;5051194;28;20268;-58
2021/12/23 04:00:25;;;;;;;74.87;33.80;;;8.90;99.90;;;;;;5051215;28;20256;-58
2021/12/23 04:02:52;;;;;;;78.57;31.93;;;9.00;99.90;;;;;;5051198;28;20177;-56
2021/12/23 04:05:19;;;;;;;85.00;33.67;;;8.90;99.90;;;;;;5051175;28;20875;-56
2021/12/23 04:07:45;;;;;;;73.60;32.30;;;9.00;99.90;;;;;;5050948;28;20201;-56
2021/12/23 04:10:15;;;;;;;72.97;33.67;;;9.00;99.90;;;;;;5051301;28;20177;-56
2021/12/23 04:12:42;;;;;;;73.57;33.37;;;8.90;99.90;;;;;;5050394;28;20303;-56
2021/12/23 04:15:08;;;;;;;68.73;30.90;;;8.90;99.90;;;;;;5050901;28;20185;-56
2021/12/23 04:17:34;;;;;;;72.67;31.43;;;8.90;99.90;;;;;;5051314;28;20166;-56
2021/12/23 04:20:14;;;;;;;72.03;32.63;;;8.90;99.90;;;;;;5050921;28;20173;-56
2021/12/23 04:22:41;;;;;;;74.50;32.70;;;8.90;99.90;;;;;;5051037;28;20179;-56
2021/12/23 04:25:08;;;;;;;69.17;31.60;;;9.00;99.90;;;;;;5051093;28;20183;-56
2021/12/23 04:27:34;;;;;;;77.47;31.50;;;9.00;99.90;;;;;;5050441;28;20287;-56
2021/12/23 04:29:59;;;;;;;77.10;32.17;;;9.10;99.90;;;;;;5050735;28;20177;-56
2021/12/23 04:32:25;;;;;;;68.33;29.40;;;9.10;99.90;;;;;;5050758;28;20200;-56
2021/12/23 04:34:51;;;;;;;73.50;30.87;;;9.30;99.90;;;;;;5050751;28;20532;-56
2021/12/23 04:37:17;;;;;;;64.63;27.90;;;9.30;99.90;;;;;;5050675;28;20177;-56
2021/12/23 04:39:43;;;;;;;77.03;33.13;;;9.30;99.90;;;;;;5050990;28;20169;-56
2021/12/23 04:42:09;;;;;;;72.30;29.27;;;9.40;99.90;;;;;;5050750;28;20666;-58
2021/12/23 04:44:34;;;;;;;73.47;32.37;;;9.50;99.90;;;;;;5050795;28;20181;-56
2021/12/23 04:47:00;;;;;;;71.87;31.20;;;9.50;99.90;;;;;;5050442;28;20570;-56
2021/12/23 04:49:26;;;;;;;73.70;32.00;;;9.50;99.90;;;;;;5050553;28;20181;-56
2021/12/23 04:51:52;;;;;;;71.37;32.57;;;9.50;99.90;;;;;;5050175;28;20226;-56
2021/12/23 04:54:17;;;;;;;83.00;33.53;;;9.40;99.90;;;;;;5050631;28;20181;-56
2021/12/23 04:56:43;;;;;;;74.67;33.03;;;9.60;99.90;;;;;;5050201;28;20184;-57
2021/12/23 04:59:09;;;;;;;75.13;32.93;;;9.40;99.90;;;;;;5050284;28;20173;-56
2021/12/23 05:01:35;;;;;;;69.37;32.53;;;9.30;99.90;;;;;;5049706;28;20319;-56
2021/12/23 05:04:01;;;;;;;82.70;33.87;;;9.30;99.90;;;;;;5050539;28;20528;-56
2021/12/23 05:06:27;;;;;;;70.20;32.90;;;9.30;99.90;;;;;;5050422;28;20181;-55
2021/12/23 05:08:53;;;;;;;70.63;30.83;;;9.30;99.90;;;;;;5050290;28;20295;-56
2021/12/23 05:11:19;;;;;;;79.40;32.07;;;9.30;99.90;;;;;;5050179;28;20733;-56
2021/12/23 05:13:47;;;;;;;72.83;32.50;;;9.30;99.90;;;;;;5050503;28;20213;-56
2021/12/23 05:16:14;;;;;;;79.30;34.07;;;9.30;99.90;;;;;;5050112;28;20181;-56
2021/12/23 05:18:40;;;;;;;74.57;32.97;;;9.30;99.90;;;;;;5050278;28;20177;-57
2021/12/23 05:21:06;;;;;;;67.87;31.53;;;9.30;99.90;;;;;;5050070;28;20263;-56
2021/12/23 05:23:32;;;;;;;74.07;31.17;;;9.30;99.90;;;;;;5052259;28;20189;-57
2021/12/23 05:25:58;;;;;;;68.57;31.37;;;9.40;99.90;;;;;;5054278;28;20212;-56
2021/12/23 05:28:24;;;;;;;70.70;33.03;;;9.40;99.90;;;;;;5053953;28;20223;-56
2021/12/23 05:30:50;;;;;;;73.03;32.73;;;9.40;99.90;;;;;;5054461;28;20169;-57
2021/12/23 05:33:16;;;;;;;78.40;33.27;;;9.40;99.90;;;;;;5053828;28;20181;-56
2021/12/23 05:35:42;;;;;;;69.07;33.00;;;9.40;99.90;;;;;;5054244;28;20169;-59
2021/12/23 05:38:08;;;;;;;74.37;33.73;;;9.40;99.90;;;;;;5053943;28;20181;-56
2021/12/23 05:40:35;;;;;;;72.73;33.37;;;9.40;99.90;;;;;;5053832;28;20175;-56
2021/12/23 05:43:02;;;;;;;75.97;34.03;;;9.40;99.90;;;;;;5053392;28;20192;-56
2021/12/23 05:45:27;;;;;;;71.00;34.10;;;9.40;99.90;;;;;;5050076;28;20173;-56
2021/12/23 05:47:54;;;;;;;74.27;32.77;;;9.40;99.90;;;;;;5052929;28;20212;-58
2021/12/23 05:50:21;;;;;;;84.17;34.17;;;9.40;99.90;;;;;;5053444;28;20223;-56
2021/12/23 05:52:47;;;;;;;79.93;34.67;;;9.40;99.90;;;;;;5053160;28;20181;-56
2021/12/23 05:55:14;;;;;;;87.50;33.70;;;9.30;99.90;;;;;;5053448;28;20185;-56
2021/12/23 05:57:41;;;;;;;83.47;34.67;;;9.30;99.90;;;;;;5053331;28;20691;-56
2021/12/23 06:00:12;;;;;;;93.77;35.57;;;9.30;99.90;;;;;;5053584;28;20536;-57
2021/12/23 06:02:38;;;;;;;89.47;35.40;;;9.20;99.90;;;;;;5053210;28;20270;-57
2021/12/23 06:05:05;;;;;;;92.03;36.17;;;9.20;99.90;;;;;;5053746;28;20184;-56
2021/12/23 06:07:31;;;;;;;93.40;34.33;;;9.20;99.90;;;;;;5053316;28;20209;-56
2021/12/23 06:09:57;;;;;;;97.63;38.03;;;9.20;99.90;;;;;;5053622;28;20170;-56
2021/12/23 06:12:23;;;;;;;94.97;38.03;;;9.20;99.90;;;;;;5053177;28;20181;-56
2021/12/23 06:14:49;;;;;;;83.43;35.37;;;9.20;99.90;;;;;;5053566;28;20176;-56
2021/12/23 06:17:14;;;;;;;93.77;36.70;;;9.20;99.90;;;;;;5053115;28;20361;-56
2021/12/23 06:19:40;;;;;;;92.03;35.77;;;9.20;99.90;;;;;;5053186;28;20174;-56
2021/12/23 06:22:06;;;;;;;99.27;37.87;;;9.10;99.90;;;;;;5053308;28;20185;-56
2021/12/23 06:24:32;;;;;;;88.07;34.47;;;9.10;99.90;;;;;;5052968;28;20513;-57
2021/12/23 06:26:58;;;;;;;105.40;37.83;;;9.10;99.90;;;;;;5052749;28;20221;-57
2021/12/23 06:29:24;;;;;;;91.23;35.47;;;9.10;99.90;;;;;;5052917;28;20182;-57
2021/12/23 06:31:49;;;;;;;85.50;35.40;;;9.10;99.90;;;;;;5053198;28;20631;-57
2021/12/23 06:34:15;;;;;;;85.47;36.57;;;9.10;99.90;;;;;;5051959;28;20189;-57
2021/12/23 06:36:44;;;;;;;85.33;36.43;;;9.10;99.90;;;;;;5052825;28;20221;-57
2021/12/23 06:39:10;;;;;;;86.53;36.73;;;9.00;99.90;;;;;;5052789;28;20193;-57
2021/12/23 06:41:35;;;;;;;88.97;35.80;;;9.10;99.90;;;;;;5053125;28;20212;-57
2021/12/23 06:44:01;;;;;;;91.60;36.33;;;9.10;99.90;;;;;;5052769;28;20184;-57
2021/12/23 06:46:27;;;;;;;87.17;35.90;;;9.10;99.90;;;;;;5052587;28;20173;-57
2021/12/23 06:48:53;;;;;;;87.90;35.97;;;9.10;99.90;;;;;;5051886;28;20220;-56
2021/12/23 06:51:19;;;;;;;87.87;34.50;;;9.10;99.90;;;;;;5048828;28;20255;-56
2021/12/23 06:53:44;;;;;;;90.50;35.13;;;9.10;99.90;;;;;;5051606;28;20670;-56
2021/12/23 06:56:11;;;;;;;79.17;33.03;;;9.10;99.90;;;;;;5052181;28;20315;-56
2021/12/23 06:58:39;;;;;;;81.17;34.77;;;9.10;99.90;;;;;;5052366;28;20181;-56
2021/12/23 07:01:05;;;;;;;90.30;34.00;;;9.10;99.90;;;;;;5052121;28;20185;-57
2021/12/23 07:03:57;;;;;;;77.03;31.83;;;10.30;99.90;;;;;;5051795;28;20185;-57
2021/12/23 07:06:22;;;;;;;75.90;32.00;;;9.20;99.90;;;;;;5052070;28;20263;-57
2021/12/23 07:08:48;;;;;;;76.37;32.67;;;9.30;99.90;;;;;;5052289;28;20605;-57
2021/12/23 07:11:14;;;;;;;75.83;31.93;;;9.30;99.90;;;;;;5052275;28;20674;-57
2021/12/23 07:13:40;;;;;;;66.47;30.27;;;9.30;99.90;;;;;;5051504;28;20188;-57
2021/12/23 07:16:06;;;;;;;71.30;32.50;;;9.40;99.90;;;;;;5052289;28;20185;-57
2021/12/23 07:18:31;;;;;;;74.27;32.03;;;9.30;99.90;;;;;;5051908;28;20177;-57
2021/12/23 07:20:57;;;;;;;78.47;32.30;;;9.30;99.90;;;;;;5051656;28;20205;-57
2021/12/23 07:23:23;;;;;;;82.07;31.67;;;9.30;99.90;;;;;;5051296;28;20178;-57
2021/12/23 07:25:49;;;;;;;73.50;31.40;;;9.30;99.90;;;;;;5050801;28;20204;-56
2021/12/23 07:28:15;;;;;;;74.47;31.23;;;9.40;99.90;;;;;;5051623;28;20245;-57
2021/12/23 07:30:41;;;;;;;62.00;27.80;;;9.30;99.90;;;;;;5051295;28;20656;-56
2021/12/23 07:33:06;;;;;;;66.97;30.33;;;9.40;99.90;;;;;;5051638;28;20186;-57
2021/12/23 07:35:32;;;;;;;77.13;30.63;;;9.40;99.90;;;;;;5051567;28;20647;-56
2021/12/23 07:38:00;;;;;;;74.00;32.57;;;9.40;99.90;;;;;;5051613;28;20652;-56
2021/12/23 07:40:27;;;;;;;64.90;30.43;;;9.40;99.90;;;;;;5051276;28;20189;-60
2021/12/23 07:42:56;;;;;;;67.17;30.93;;;9.40;99.90;;;;;;5050969;28;20272;-61
2021/12/23 07:45:24;;;;;;;65.80;28.17;;;9.40;99.90;;;;;;5050990;28;20185;-61
2021/12/23 07:47:50;;;;;;;65.83;28.03;;;9.40;99.90;;;;;;5049168;28;20217;-61
2021/12/23 07:50:16;;;;;;;66.50;29.87;;;9.40;99.90;;;;;;5051068;28;20231;-61
2021/12/23 07:52:42;;;;;;;68.10;27.97;;;9.50;99.90;;;;;;5051338;28;20181;-61
2021/12/23 07:55:08;;;;;;;57.00;27.17;;;9.50;99.90;;;;;;5050441;28;20247;-61
2021/12/23 07:57:34;;;;;;;60.87;28.07;;;9.40;99.90;;;;;;5050860;28;20200;-60
2021/12/23 08:00:01;;;;;;;67.73;28.53;;;9.50;99.90;;;;;;5050736;28;20627;-62
2021/12/23 08:02:27;;;;;;;63.20;28.07;;;9.40;99.90;;;;;;5048800;28;20172;-61
2021/12/23 08:04:53;;;;;;;68.17;28.83;;;9.50;99.90;;;;;;5050491;28;20248;-61
2021/12/23 08:07:19;;;;;;;64.60;29.30;;;9.50;99.90;;;;;;5049981;28;20292;-61
2021/12/23 08:09:44;;;;;;;71.70;30.00;;;9.50;99.90;;;;;;5051108;28;20268;-61
2021/12/23 08:12:10;;;;;;;65.17;29.83;;;9.40;99.90;;;;;;5051295;28;20179;-61
2021/12/23 08:14:36;;;;;;;70.30;28.67;;;9.40;99.90;;;;;;5050631;28;20256;-59
2021/12/23 08:17:02;;;;;;;72.03;31.53;;;9.50;99.90;;;;;;5050966;28;20169;-58
2021/12/23 08:19:28;;;;;;;69.30;30.20;;;9.40;99.90;;;;;;5050373;28;20197;-57
2021/12/23 08:21:54;;;;;;;61.83;26.27;;;9.50;99.90;;;;;;5050245;28;20621;-57
2021/12/23 08:24:20;;;;;;;60.90;26.07;;;9.40;99.90;;;;;;5048542;28;20223;-58
2021/12/23 08:26:51;;;;;;;71.43;31.87;;;9.50;99.90;;;;;;5049640;28;20271;-60
2021/12/23 08:29:19;;;;;;;66.73;30.33;;;9.50;99.90;;;;;;5051025;28;20221;-61
2021/12/23 08:31:53;;;;;;;71.13;28.77;;;9.50;99.90;;;;;;5050302;28;20177;-61
2021/12/23 08:34:24;;;;;;;65.77;28.87;;;9.50;99.90;;;;;;5050667;28;20195;-59
2021/12/23 08:36:51;;;;;;;70.73;30.53;;;9.50;99.90;;;;;;5050330;28;20690;-59
2021/12/23 08:39:18;;;;;;;65.27;28.60;;;9.50;99.90;;;;;;5049817;28;20165;-60
2021/12/23 08:41:44;;;;;;;68.27;29.97;;;9.50;99.90;;;;;;5050604;28;20176;-61
2021/12/23 08:44:10;;;;;;;69.27;29.53;;;9.50;99.90;;;;;;5044591;28;20617;-61
2021/12/23 08:46:36;;;;;;;66.53;31.00;;;9.50;99.90;;;;;;5046990;28;20181;-61
2021/12/23 08:49:03;;;;;;;71.07;30.00;;;9.50;99.90;;;;;;5049913;28;20228;-61
2021/12/23 08:51:29;;;;;;;65.30;29.63;;;9.50;99.90;;;;;;5048917;28;20651;-61
2021/12/23 08:53:55;;;;;;;61.00;26.10;;;9.50;99.90;;;;;;5050653;28;20180;-61
2021/12/23 08:56:21;;;;;;;70.23;30.43;;;9.60;99.90;;;;;;5050338;28;20211;-62
2021/12/23 08:58:47;;;;;;;64.60;29.13;;;9.60;99.90;;;;;;5052959;28;20177;-61
2021/12/23 09:01:13;;;;;;;57.50;27.53;;;9.60;99.90;;;;;;5054800;28;20177;-61
2021/12/23 09:03:38;;;;;;;50.50;25.10;;;9.70;99.90;;;;;;5054828;28;20177;-57
2021/12/23 09:06:05;;;;;;;55.23;24.03;;;9.80;99.90;;;;;;5052665;28;20227;-57
2021/12/23 09:08:31;;;;;;;54.27;23.57;;;9.90;99.90;;;;;;5053929;28;20255;-61
2021/12/23 09:10:58;;;;;;;47.20;21.93;;;9.90;99.90;;;;;;5054290;28;20204;-60
2021/12/23 09:13:25;;;;;;;45.47;20.53;;;10.00;99.90;;;;;;5054039;28;20267;-60
2021/12/23 09:15:52;;;;;;;45.73;20.97;;;10.00;99.90;;;;;;5054165;28;20165;-60
2021/12/23 09:18:21;;;;;;;43.77;20.93;;;10.00;99.90;;;;;;5054556;28;20169;-60
2021/12/23 09:20:48;;;;;;;35.93;18.23;;;10.10;99.90;;;;;;5054105;28;20161;-60
2021/12/23 09:23:15;;;;;;;32.13;16.13;;;10.20;99.90;;;;;;5054214;28;20239;-60
2021/12/23 09:25:41;;;;;;;32.67;14.93;;;10.20;99.90;;;;;;5053909;28;20165;-61
2021/12/23 09:33:29;;;;;;;31.83;16.53;;;10.40;99.90;;;;;;5054284;28;20188;-60
2021/12/23 09:35:55;;;;;;;27.10;14.07;;;10.40;99.90;;;;;;5053764;28;20181;-61
2021/12/23 09:38:27;;;;;;;25.97;13.23;;;10.40;99.90;;;;;;5054133;28;20848;-60
2021/12/23 09:40:56;;;;;;;27.03;15.10;;;10.60;99.90;;;;;;5053772;28;20177;-61
2021/12/23 09:43:25;;;;;;;26.37;14.57;;;10.60;99.90;;;;;;5053478;28;20181;-61
2021/12/23 09:45:51;;;;;;;26.17;14.80;;;10.60;99.90;;;;;;5054021;28;20628;-60
2021/12/23 09:48:21;;;;;;;25.77;14.20;;;10.60;99.90;;;;;;5053796;28;20200;-57
2021/12/23 09:50:49;;;;;;;24.80;12.77;;;10.60;99.90;;;;;;5053912;28;20169;-58
2021/12/23 09:53:22;;;;;;;30.90;14.63;;;10.60;99.90;;;;;;5053757;28;20169;-60
2021/12/23 09:55:49;;;;;;;22.53;12.70;;;10.60;99.90;;;;;;5053722;28;20200;-60
2021/12/23 09:58:16;;;;;;;20.70;12.50;;;10.60;99.90;;;;;;5050786;28;20185;-60
2021/12/23 10:00:45;;;;;;;20.03;11.27;;;10.70;99.90;;;;;;5053086;28;20187;-61
2021/12/23 10:03:13;;;;;;;21.40;11.37;;;10.80;99.90;;;;;;5053563;28;20197;-61
2021/12/23 10:05:39;;;;;;;19.33;10.80;;;10.80;99.90;;;;;;5053624;28;20256;-60
2021/12/23 10:08:06;;;;;;;21.80;11.87;;;10.80;99.90;;;;;;5053014;28;20213;-60
2021/12/23 10:10:42;;;;;;;22.27;11.40;;;10.80;99.90;;;;;;5051928;28;20158;-58
2021/12/23 10:30:16;;;;;;;13.93;8.40;;;10.90;99.90;;;;;;5049779;28;20597;-60
2021/12/23 10:42:14;;;;;;;14.60;7.17;;;11.00;99.90;;;;;;5052659;28;20172;-61
2021/12/23 10:44:47;;;;;;;13.30;7.30;;;11.10;99.90;;;;;;5052796;28;20169;-61
2021/12/23 10:47:50;;;;;;;9.87;5.87;;;11.10;99.90;;;;;;5052210;28;20176;-61
2021/12/23 10:50:22;;;;;;;10.43;5.90;;;11.10;99.90;;;;;;5052762;28;20223;-57
2021/12/23 10:53:02;;;;;;;9.03;5.67;;;11.10;99.90;;;;;;5052621;28;20543;-68
2021/12/23 10:58:15;;;;;;;7.83;4.50;;;11.10;99.90;;;;;;5032729;28;20663;-70
2021/12/23 11:00:46;;;;;;;9.23;4.43;;;11.20;99.90;;;;;;5031749;28;20178;-61
2021/12/23 11:03:20;;;;;;;6.27;4.00;;;11.20;99.90;;;;;;5030656;28;20223;-63
2021/12/23 11:28:03;;;;;;;7.20;3.57;;;11.70;99.90;;;;;;5032036;28;20229;-66
2021/12/23 11:40:59;;;;;;;6.13;3.73;;;11.70;99.90;;;;;;5031751;28;20280;-61
2021/12/23 11:45:53;;;;;;;8.00;4.20;;;11.70;99.90;;;;;;5031675;28;20527;-61
2021/12/23 11:48:19;;;;;;;9.47;4.60;;;11.70;99.90;;;;;;5031429;28;20205;-61
2021/12/23 11:53:29;;;;;;;9.90;4.53;;;11.70;99.90;;;;;;5031731;28;20603;-60
2021/12/23 11:55:56;;;;;;;6.77;4.23;;;11.70;99.90;;;;;;5047035;28;20176;-61
2021/12/23 11:58:26;;;;;;;8.23;4.53;;;11.70;99.90;;;;;;5050846;28;20212;-61
2021/12/23 12:01:08;;;;;;;9.30;4.00;;;11.70;99.90;;;;;;5049864;28;20173;-61
2021/12/23 12:03:59;;;;;;;5.97;4.20;;;11.80;99.90;;;;;;5050854;28;20172;-61
2021/12/23 12:06:45;;;;;;;9.70;4.00;;;11.80;99.90;;;;;;5051276;28;20242;-61
2021/12/23 12:09:14;;;;;;;13.47;4.73;;;11.80;99.90;;;;;;5051141;28;20703;-61
2021/12/23 12:11:41;;;;;;;7.80;4.70;;;11.90;99.90;;;;;;5050974;28;20169;-60
2021/12/23 12:14:40;;;;;;;7.73;3.87;;;11.90;99.90;;;;;;5050792;28;20242;-60
2021/12/23 12:17:24;;;;;;;7.63;3.77;;;11.90;99.90;;;;;;5050661;28;20205;-61
2021/12/23 12:19:56;;;;;;;6.77;3.80;;;11.90;99.90;;;;;;5050884;28;20774;-61
2021/12/23 12:22:46;;;;;;;5.80;3.47;;;11.90;99.90;;;;;;5050128;28;20165;-60
2021/12/23 12:25:24;;;;;;;6.97;4.77;;;11.90;99.90;;;;;;5050890;28;20268;-61
2021/12/23 12:28:10;;;;;;;6.97;4.37;;;11.90;99.90;;;;;;5047089;28;20228;-61
2021/12/23 12:31:01;;;;;;;8.07;3.23;;;11.90;99.90;;;;;;5041182;28;20678;-61
2021/12/23 12:33:26;;;;;;;6.43;3.30;;;12.00;99.90;;;;;;5041134;28;20663;-61
2021/12/23 12:35:58;;;;;;;6.63;3.50;;;12.00;99.90;;;;;;5030917;28;20170;-61
2021/12/23 12:38:26;;;;;;;7.30;3.40;;;12.10;99.90;;;;;;5043673;28;20177;-61
2021/12/23 12:40:58;;;;;;;4.50;2.60;;;12.10;99.90;;;;;;5050745;28;20177;-60
2021/12/23 12:43:34;;;;;;;8.10;3.90;;;12.00;99.90;;;;;;5050808;28;20176;-61
2021/12/23 12:46:00;;;;;;;8.60;4.27;;;12.10;99.90;;;;;;5050054;28;20181;-61
2021/12/23 12:48:58;;;;;;;6.67;3.23;;;12.10;99.90;;;;;;5049628;28;20219;-61
2021/12/23 12:51:32;;;;;;;7.33;3.23;;;12.10;99.90;;;;;;5030136;28;20260;-61
2021/12/23 12:54:04;;;;;;;6.63;3.87;;;12.10;99.90;;;;;;5030337;28;20222;-61
2021/12/23 12:56:51;;;;;;;7.07;3.70;;;12.00;99.90;;;;;;5030663;28;20200;-64
2021/12/23 12:59:22;;;;;;;7.10;3.70;;;12.00;99.90;;;;;;5035854;28;20208;-73
2021/12/23 13:01:51;;;;;;;5.37;3.30;;;12.00;99.90;;;;;;5033154;28;22309;-68
2021/12/23 13:04:28;;;;;;;6.07;3.37;;;12.00;99.90;;;;;;5050376;28;20181;-70
2021/12/23 13:06:56;;;;;;;7.90;3.73;;;12.00;99.90;;;;;;5050266;28;20181;-63
2021/12/23 13:09:28;;;;;;;10.20;4.07;;;12.00;99.90;;;;;;5050167;28;20274;-62
2021/12/23 13:11:58;;;;;;;13.20;4.17;;;12.00;99.90;;;;;;5050394;28;20173;-65
2021/12/23 13:15:05;;;;;;;6.73;4.00;;;12.00;99.90;;;;;;5048670;28;20185;-63
2021/12/23 13:17:51;;;;;;;8.17;3.90;;;12.00;99.90;;;;;;5050156;28;20319;-61
2021/12/23 13:20:18;;;;;;;12.40;4.57;;;12.00;99.90;;;;;;5050173;28;20516;-62
2021/12/23 13:22:45;;;;;;;9.07;4.90;;;12.00;99.90;;;;;;5049724;28;20166;-64
2021/12/23 13:25:12;;;;;;;7.23;4.00;;;12.00;99.90;;;;;;5048920;28;20200;-68
2021/12/23 13:27:40;;;;;;;7.90;4.60;;;12.00;99.90;;;;;;5050148;28;20232;-61
2021/12/23 13:30:11;;;;;;;8.80;4.77;;;12.00;99.90;;;;;;5049703;28;20527;-61
2021/12/23 13:32:38;;;;;;;5.97;4.00;;;12.00;99.90;;;;;;5049909;28;20169;-60
2021/12/23 13:35:15;;;;;;;9.67;4.17;;;12.00;99.90;;;;;;5047942;28;20276;-61
2021/12/23 13:37:43;;;;;;;10.40;4.40;;;12.10;99.90;;;;;;5049288;28;20545;-61
2021/12/23 13:40:10;;;;;;;8.37;4.43;;;12.20;99.90;;;;;;5049847;28;20184;-61
2021/12/23 13:42:40;;;;;;;13.17;4.47;;;12.20;99.90;;;;;;5049439;28;20196;-60
2021/12/23 13:45:07;;;;;;;15.37;4.57;;;12.30;99.90;;;;;;5052726;28;20166;-61
2021/12/23 13:47:34;;;;;;;8.30;4.23;;;12.30;99.90;;;;;;5053121;28;20200;-61
2021/12/23 13:50:01;;;;;;;10.20;4.70;;;12.30;99.90;;;;;;5053375;28;20180;-60
2021/12/23 13:52:38;;;;;;;14.47;6.20;;;12.40;99.90;;;;;;5053502;28;20593;-61
2021/12/23 13:55:14;;;;;;;16.53;6.60;;;12.40;99.90;;;;;;5033577;28;20205;-61
2021/12/23 13:57:43;;;;;;;14.90;5.13;;;12.40;99.90;;;;;;5033402;28;20180;-60
2021/12/23 14:00:21;;;;;;;15.50;5.93;;;12.40;99.90;;;;;;5046713;28;20173;-60
2021/12/23 14:02:51;;;;;;;12.43;5.07;;;12.40;99.90;;;;;;5053501;28;20647;-60
2021/12/23 14:05:17;;;;;;;9.53;4.43;;;12.50;99.90;;;;;;5053405;28;20177;-60